createdAt,value
2019-03-11T00:00:21.696Z,2015.57
2019-03-11T00:01:21.694Z,1999.73
2019-03-11T00:02:21.699Z,2013.96
2019-03-11T00:03:21.750Z,1997.49
2019-03-11T00:04:22.711Z,1999.09
2019-03-11T00:05:21.763Z,2017.73
2019-03-11T00:06:21.834Z,2019.44
2019-03-11T00:07:21.773Z,2010.24
2019-03-11T00:08:21.849Z,2023.18
2019-03-11T00:09:21.874Z,1999.49
2019-03-11T00:10:21.814Z,2018.24
2019-03-11T00:11:21.838Z,2017.59
2019-03-11T00:12:21.827Z,2018.69
2019-03-11T00:13:21.914Z,2004.38
2019-03-11T00:14:21.862Z,2021.92
2019-03-11T00:15:21.896Z,2015.52
2019-03-11T00:16:21.894Z,2008.54
2019-03-11T00:17:21.972Z,2019.75
2019-03-11T00:18:21.960Z,1998.99
2019-03-11T00:19:21.937Z,2026.82
2019-03-11T00:20:21.933Z,2020.40
2019-03-11T00:21:22.021Z,2004.19
2019-03-11T00:22:22.009Z,1997.94
2019-03-11T00:23:21.965Z,2030.37
2019-03-11T00:24:21.990Z,2026.22
2019-03-11T00:25:22.004Z,2011.10
2019-03-11T00:26:22.006Z,2007.34
2019-03-11T00:27:22.096Z,2003.09
2019-03-11T00:28:22.028Z,2016.58
2019-03-11T00:29:22.054Z,2015.38
2019-03-11T00:30:22.070Z,2008.75
2019-03-11T00:31:22.073Z,2024.40
2019-03-11T00:32:22.132Z,2000.75
2019-03-11T00:33:22.110Z,2022.74
2019-03-11T00:34:22.112Z,2029.72
2019-03-11T00:35:22.120Z,2031.95
2019-03-11T00:36:22.133Z,2001.44
2019-03-11T00:37:22.200Z,1996.66
2019-03-11T00:38:22.164Z,2002.35
2019-03-11T00:39:22.199Z,2024.40
2019-03-11T00:40:22.185Z,2005.14
2019-03-11T00:41:22.190Z,1997.20
2019-03-11T00:42:22.206Z,2009.26
2019-03-11T00:43:22.285Z,2027.95
2019-03-11T00:44:22.259Z,2006.10
2019-03-11T00:45:24.145Z,2006.10
2019-03-11T00:46:22.247Z,2016.14
2019-03-11T00:47:22.255Z,2026.38
2019-03-11T00:48:22.284Z,2000.15
2019-03-11T00:49:22.327Z,2005.45
2019-03-11T00:50:22.311Z,2034.34
2019-03-11T00:51:22.312Z,2005.95
2019-03-11T00:52:22.321Z,2027.24
2019-03-11T00:53:22.409Z,2006.41
2019-03-11T00:54:22.368Z,2013.43
2019-03-11T00:55:22.402Z,2023.65
2019-03-11T00:56:22.366Z,2006.81
2019-03-11T00:57:22.442Z,2031.04
2019-03-11T00:58:22.416Z,2020.13
2019-03-11T00:59:22.425Z,2029.78
2019-03-11T01:00:22.449Z,2004.71
2019-03-11T01:01:22.445Z,2027.56
2019-03-11T01:02:22.453Z,2013.73
2019-03-11T01:03:22.459Z,1996.72
2019-03-11T01:04:22.538Z,2035.11
2019-03-11T01:05:22.498Z,2023.86
2019-03-11T01:06:22.509Z,2013.13
2019-03-11T01:07:22.503Z,2035.67
2019-03-11T01:08:22.528Z,2009.92
2019-03-11T01:09:22.543Z,2009.37
2019-03-11T01:10:22.536Z,2029.18
2019-03-11T01:11:22.561Z,2016.30
2019-03-11T01:12:22.573Z,2007.12
2019-03-11T01:13:22.628Z,2015.05
2019-03-11T01:14:22.595Z,2038.12
2019-03-11T01:15:22.603Z,1999.81
2019-03-11T01:16:22.608Z,2017.77
2019-03-11T01:17:22.639Z,2016.86
2019-03-11T01:18:22.665Z,2021.69
2019-03-11T01:19:22.675Z,2030.70
2019-03-11T01:20:22.690Z,2009.27
2019-03-11T01:21:22.738Z,1997.03
2019-03-11T01:22:22.706Z,2034.96
2019-03-11T01:23:22.703Z,2032.32
2019-03-11T01:24:22.761Z,2036.03
2019-03-11T01:25:22.733Z,2013.49
2019-03-11T01:26:22.742Z,2004.96
2019-03-11T01:27:22.745Z,2031.86
2019-03-11T01:28:22.770Z,1994.53
2019-03-11T01:29:22.843Z,2032.42
2019-03-11T01:30:22.821Z,2021.55
2019-03-11T01:31:22.786Z,2035.42
2019-03-11T01:32:22.887Z,2036.18
2019-03-11T01:33:22.858Z,2010.98
2019-03-11T01:34:22.900Z,2009.92
2019-03-11T01:35:22.881Z,2014.60
2019-03-11T01:36:22.884Z,2018.87
2019-03-11T01:37:22.869Z,1999.72
2019-03-11T01:38:22.897Z,2016.30
2019-03-11T01:39:22.912Z,2010.42
2019-03-11T01:40:22.925Z,2031.21
2019-03-11T01:41:22.920Z,2007.62
2019-03-11T01:42:22.947Z,2001.41
2019-03-11T01:43:22.958Z,2036.18
2019-03-11T01:44:22.963Z,2017.36
2019-03-11T01:45:22.984Z,2004.46
2019-03-11T01:46:23.045Z,2004.61
2019-03-11T01:47:23.075Z,2010.33
2019-03-11T01:48:23.026Z,2039.84
2019-03-11T01:49:24.067Z,2021.55
2019-03-11T01:50:23.060Z,2006.57
2019-03-11T01:51:23.036Z,2004.96
2019-03-11T01:52:23.135Z,2023.26
2019-03-11T01:53:23.075Z,1999.81
2019-03-11T01:54:23.089Z,2015.15
2019-03-11T01:55:23.150Z,2022.66
2019-03-11T01:56:23.118Z,2040.50
2019-03-11T01:57:23.159Z,2028.52
2019-03-11T01:58:23.166Z,2030.24
2019-03-11T01:59:23.142Z,2035.57
2019-03-11T02:00:23.191Z,2021.55
2019-03-11T02:01:23.178Z,2022.00
2019-03-11T02:02:23.188Z,2045.30
2019-03-11T02:03:23.206Z,2016.15
2019-03-11T02:04:23.206Z,2044.64
2019-03-11T02:05:23.246Z,2000.22
2019-03-11T02:06:23.260Z,2036.74
2019-03-11T02:07:23.290Z,2043.01
2019-03-11T02:08:23.247Z,2000.22
2019-03-11T02:09:23.285Z,2035.42
2019-03-11T02:10:23.288Z,2021.45
2019-03-11T02:11:23.305Z,2040.31
2019-03-11T02:12:23.309Z,1995.48
2019-03-11T02:13:23.384Z,2025.74
2019-03-11T02:14:23.333Z,2016.66
2019-03-11T02:15:23.364Z,2028.01
2019-03-11T02:16:23.372Z,2016.11
2019-03-11T02:17:23.370Z,2032.32
2019-03-11T02:18:23.391Z,2009.53
2019-03-11T02:19:23.391Z,2030.96
2019-03-11T02:20:23.410Z,2024.68
2019-03-11T02:21:23.418Z,1999.07
2019-03-11T02:22:23.429Z,2037.71
2019-03-11T02:23:23.437Z,2021.30
2019-03-11T02:24:23.458Z,2017.16
2019-03-11T02:25:23.480Z,2009.18
2019-03-11T02:26:23.538Z,2014.90
2019-03-11T02:27:23.503Z,2008.62
2019-03-11T02:28:23.501Z,2017.57
2019-03-11T02:29:23.516Z,2010.63
2019-03-11T02:30:23.535Z,2020.39
2019-03-11T02:31:23.558Z,2022.51
2019-03-11T02:32:23.563Z,2017.16
2019-03-11T02:33:23.575Z,1997.48
2019-03-11T02:34:23.618Z,2044.49
2019-03-11T02:35:23.610Z,2003.17
2019-03-11T02:36:23.613Z,2037.05
2019-03-11T02:37:23.614Z,2022.92
2019-03-11T02:38:23.620Z,1999.48
2019-03-11T02:39:23.712Z,2042.91
2019-03-11T02:40:23.655Z,2006.83
2019-03-11T02:41:23.680Z,2005.82
2019-03-11T02:42:23.680Z,2014.40
2019-03-11T02:43:23.686Z,2028.28
2019-03-11T02:44:23.716Z,1997.88
2019-03-11T02:45:23.707Z,2026.15
2019-03-11T02:46:23.741Z,2030.91
2019-03-11T02:47:23.755Z,2020.70
2019-03-11T02:48:23.792Z,2013.75
2019-03-11T02:49:23.766Z,2019.64
2019-03-11T02:50:23.787Z,2020.75
2019-03-11T02:51:23.820Z,2036.39
2019-03-11T02:52:23.812Z,2014.81
2019-03-11T02:53:23.845Z,2011.59
2019-03-11T02:54:23.844Z,2018.58
2019-03-11T02:55:23.865Z,2026.46
2019-03-11T02:56:23.873Z,2003.72
2019-03-11T02:57:23.870Z,2048.59
2019-03-11T02:58:23.888Z,2018.43
2019-03-11T02:59:23.885Z,2030.91
2019-03-11T03:00:23.889Z,2038.48
2019-03-11T03:01:23.909Z,2051.81
2019-03-11T03:02:23.916Z,2021.11
2019-03-11T03:03:23.969Z,2020.05
2019-03-11T03:04:23.945Z,2017.93
2019-03-11T03:05:23.953Z,2008.84
2019-03-11T03:06:24.068Z,2010.34
2019-03-11T03:07:23.973Z,2013.10
2019-03-11T03:08:24.009Z,2032.29
2019-03-11T03:09:23.996Z,2029.60
2019-03-11T03:10:24.067Z,2011.95
2019-03-11T03:11:24.062Z,2016.22
2019-03-11T03:12:24.050Z,2018.24
2019-03-11T03:13:24.094Z,2034.01
2019-03-11T03:14:24.110Z,2040.93
2019-03-11T03:15:24.066Z,2052.43
2019-03-11T03:16:24.114Z,2023.18
2019-03-11T03:17:24.093Z,2022.07
2019-03-11T03:18:24.137Z,2025.76
2019-03-11T03:19:24.132Z,2032.85
2019-03-11T03:20:24.132Z,2025.61
2019-03-11T03:21:24.160Z,2026.27
2019-03-11T03:22:24.177Z,2018.89
2019-03-11T03:23:24.174Z,2004.29
2019-03-11T03:24:24.232Z,2025.61
2019-03-11T03:25:33.736Z,2019.85
2019-03-11T03:26:24.224Z,2013.96
2019-03-11T03:27:24.191Z,2007.04
2019-03-11T03:28:24.193Z,2028.29
2019-03-11T03:29:24.217Z,2020.81
2019-03-11T03:30:24.221Z,2041.81
2019-03-11T03:31:24.228Z,2036.41
2019-03-11T03:32:24.273Z,2021.32
2019-03-11T03:33:24.230Z,2006.39
2019-03-11T03:34:24.217Z,2031.13
2019-03-11T03:35:24.227Z,2012.26
2019-03-11T03:36:24.225Z,2039.67
2019-03-11T03:37:24.223Z,2016.53
2019-03-11T03:38:30.469Z,2005.84
2019-03-11T03:39:24.208Z,2043.44
2019-03-11T03:40:24.216Z,2002.69
2019-03-11T03:41:24.237Z,2029.82
2019-03-11T03:42:24.244Z,2011.61
2019-03-11T03:43:24.240Z,2018.55
2019-03-11T03:44:24.226Z,2046.14
2019-03-11T03:45:24.204Z,2014.73
2019-03-11T03:46:24.261Z,2003.09
2019-03-11T03:47:24.230Z,2024.86
2019-03-11T03:48:24.232Z,2042.12
2019-03-11T03:49:24.231Z,2044.21
2019-03-11T03:50:24.290Z,2046.46
2019-03-11T03:51:24.249Z,2044.21
2019-03-11T03:52:24.274Z,2027.54
2019-03-11T03:53:24.251Z,2053.42
2019-03-11T03:54:24.291Z,2016.19
2019-03-11T03:55:24.289Z,2047.53
2019-03-11T03:56:24.286Z,2040.39
2019-03-11T03:57:24.317Z,2026.28
2019-03-11T03:58:24.241Z,2016.19
2019-03-11T03:59:24.240Z,2011.27
2019-03-11T04:00:24.298Z,2020.37
2019-03-11T04:01:24.282Z,2009.71
2019-03-11T04:02:24.234Z,2025.68
2019-03-11T04:03:24.265Z,2029.37
2019-03-11T04:04:24.295Z,2048.31
2019-03-11T04:05:24.243Z,2014.94
2019-03-11T04:06:24.321Z,2004.16
2019-03-11T04:07:24.261Z,2038.00
2019-03-11T04:08:24.268Z,2007.46
2019-03-11T04:09:24.267Z,2019.22
2019-03-11T04:10:24.257Z,2034.65
2019-03-11T04:11:24.303Z,2003.76
2019-03-11T04:12:24.246Z,2001.51
2019-03-11T04:13:24.277Z,2013.38
2019-03-11T04:14:24.247Z,2017.46
2019-03-11T04:15:24.279Z,2019.07
2019-03-11T04:16:24.279Z,2018.71
2019-03-11T04:17:24.336Z,2040.60
2019-03-11T04:18:24.283Z,2032.67
2019-03-11T04:19:24.260Z,2002.06
2019-03-11T04:20:24.285Z,2028.62
2019-03-11T04:21:24.450Z,2010.52
2019-03-11T04:22:24.294Z,2018.57
2019-03-11T04:23:24.255Z,2025.43
2019-03-11T04:24:24.298Z,2004.56
2019-03-11T04:25:24.325Z,2038.32
2019-03-11T04:26:24.326Z,2018.42
2019-03-11T04:27:24.277Z,2041.48
2019-03-11T04:28:24.264Z,2010.33
2019-03-11T04:29:24.299Z,2011.93
2019-03-11T04:30:24.328Z,2004.37
2019-03-11T04:31:24.306Z,1998.62
2019-03-11T04:32:24.296Z,2017.82
2019-03-11T04:33:24.286Z,2008.68
2019-03-11T04:34:24.277Z,2025.19
2019-03-11T04:35:24.297Z,2017.17
2019-03-11T04:36:24.292Z,2000.12
2019-03-11T04:37:24.308Z,2002.27
2019-03-11T04:38:24.273Z,2038.02
2019-03-11T04:39:24.291Z,2000.03
2019-03-11T04:40:24.283Z,1991.56
2019-03-11T04:41:24.349Z,2020.70
2019-03-11T04:42:24.302Z,2017.57
2019-03-11T04:43:24.301Z,2017.57
2019-03-11T04:44:24.309Z,2007.98
2019-03-11T04:45:24.318Z,2013.75
2019-03-11T04:46:24.355Z,2026.15
2019-03-11T04:47:24.303Z,2019.09
2019-03-11T04:48:24.302Z,2014.81
2019-03-11T04:49:24.299Z,2016.42
2019-03-11T04:50:24.322Z,1986.70
2019-03-11T04:51:24.310Z,2009.03
2019-03-11T04:52:24.330Z,1995.24
2019-03-11T04:53:24.306Z,2026.71
2019-03-11T04:54:24.315Z,1994.74
2019-03-11T04:55:24.305Z,2009.73
2019-03-11T04:56:24.380Z,1988.48
2019-03-11T04:57:24.304Z,2019.43
2019-03-11T04:58:24.318Z,2033.90
2019-03-11T04:59:24.313Z,2021.14
2019-03-11T05:00:24.324Z,2002.51
2019-03-11T05:01:24.322Z,2028.52
2019-03-11T05:02:24.350Z,2016.40
2019-03-11T05:03:24.309Z,2018.01
2019-03-11T05:04:24.328Z,2000.46
2019-03-11T05:05:24.311Z,1998.77
2019-03-11T05:06:24.313Z,2010.52
2019-03-11T05:07:24.346Z,2019.07
2019-03-11T05:08:24.369Z,2020.83
2019-03-11T05:09:24.352Z,2032.62
2019-03-11T05:10:24.330Z,2031.00
2019-03-11T05:11:24.383Z,2003.30
2019-03-11T05:12:24.351Z,2037.03
2019-03-11T05:13:24.443Z,2042.43
2019-03-11T05:14:24.395Z,2007.01
2019-03-11T05:15:24.451Z,1996.51
2019-03-11T05:16:24.430Z,2008.76
2019-03-11T05:17:24.439Z,2021.53
2019-03-11T05:18:24.431Z,2028.65
2019-03-11T05:19:24.398Z,2035.75
2019-03-11T05:20:24.434Z,2001.09
2019-03-11T05:21:24.467Z,2007.99
2019-03-11T05:22:24.472Z,1986.81
2019-03-11T05:23:24.435Z,1992.71
2019-03-11T05:24:24.398Z,2002.33
2019-03-11T05:25:24.454Z,1978.09
2019-03-11T05:26:24.431Z,1992.81
2019-03-11T05:27:24.435Z,2002.88
2019-03-11T05:28:24.465Z,1980.17
2019-03-11T05:29:24.437Z,2003.53
2019-03-11T05:30:24.419Z,1989.18
2019-03-11T05:31:24.414Z,1964.52
2019-03-11T05:32:24.462Z,1972.91
2019-03-11T05:33:24.411Z,2002.43
2019-03-11T05:34:24.423Z,1975.67
2019-03-11T05:35:24.412Z,1982.49
2019-03-11T05:36:24.394Z,1980.41
2019-03-11T05:37:24.443Z,1968.39
2019-03-11T05:38:24.410Z,1966.13
2019-03-11T05:39:24.419Z,1988.83
2019-03-11T05:40:24.405Z,1975.18
2019-03-11T05:41:24.483Z,1961.47
2019-03-11T05:42:24.484Z,1968.73
2019-03-11T05:43:24.439Z,1962.01
2019-03-11T05:44:24.434Z,2000.33
2019-03-11T05:45:24.624Z,2002.48
2019-03-11T05:46:24.444Z,1962.01
2019-03-11T05:47:24.473Z,1994.40
2019-03-11T05:48:24.564Z,1969.23
2019-03-11T05:49:24.445Z,1970.75
2019-03-11T05:50:24.495Z,1956.10
2019-03-11T05:51:31.412Z,1968.15
2019-03-11T05:52:24.455Z,1976.02
2019-03-11T05:53:24.455Z,1963.49
2019-03-11T05:54:24.567Z,1974.44
2019-03-11T05:55:24.467Z,1952.05
2019-03-11T05:56:45.249Z,1969.08
2019-03-11T05:57:45.254Z,1972.87
2019-03-11T05:58:45.245Z,1984.18
2019-03-11T05:59:45.275Z,1970.26
2019-03-11T06:00:45.294Z,1957.86
2019-03-11T06:01:45.234Z,1959.81
2019-03-11T06:02:45.271Z,1961.92
2019-03-11T06:03:45.303Z,1990.72
2019-03-11T06:04:45.295Z,1965.55
2019-03-11T06:05:45.296Z,1955.17
2019-03-11T06:06:45.244Z,1945.34
2019-03-11T06:07:45.263Z,1979.67
2019-03-11T06:08:45.263Z,1983.78
2019-03-11T06:09:45.248Z,1968.69
2019-03-11T06:10:45.290Z,1954.94
2019-03-11T06:11:45.285Z,1948.84
2019-03-11T06:12:45.279Z,1994.40
2019-03-11T06:13:45.316Z,1968.05
2019-03-11T06:14:45.304Z,1986.90
2019-03-11T06:15:45.271Z,1990.72
2019-03-11T06:16:45.280Z,1966.93
2019-03-11T06:17:45.327Z,1990.63
2019-03-11T06:18:45.277Z,2001.83
2019-03-11T06:19:45.885Z,1980.71
2019-03-11T06:20:45.300Z,1976.96
2019-03-11T06:21:45.299Z,1991.67
2019-03-11T06:22:45.279Z,1972.33
2019-03-11T06:23:45.333Z,1988.49
2019-03-11T06:24:45.280Z,1988.59
2019-03-11T06:25:45.320Z,1981.75
2019-03-11T06:26:45.308Z,1979.13
2019-03-11T06:27:45.282Z,2002.33
2019-03-11T06:28:45.273Z,1966.09
2019-03-11T06:29:45.273Z,1967.21
2019-03-11T06:30:45.317Z,1990.72
2019-03-11T06:31:45.316Z,2011.30
2019-03-11T06:32:45.309Z,1997.19
2019-03-11T06:33:45.302Z,1988.59
2019-03-11T06:34:45.314Z,1988.59
2019-03-11T06:35:45.316Z,1979.67
2019-03-11T06:36:45.297Z,1998.73
2019-03-11T06:37:45.320Z,2009.89
2019-03-11T06:38:45.358Z,1976.12
2019-03-11T06:39:45.320Z,1979.13
2019-03-11T06:40:46.114Z,1999.19
2019-03-11T06:41:45.294Z,1972.33
2019-03-11T06:42:45.290Z,1985.96
2019-03-11T06:43:45.319Z,2004.48
2019-03-11T06:44:45.289Z,1986.41
2019-03-11T06:45:45.353Z,1976.02
2019-03-11T06:46:46.104Z,1988.00
2019-03-11T06:47:45.295Z,1982.84
2019-03-11T06:48:45.325Z,1989.98
2019-03-11T06:49:45.342Z,1991.22
2019-03-11T06:50:45.294Z,1980.71
2019-03-11T06:51:45.308Z,2000.64
2019-03-11T06:52:45.333Z,1996.54
2019-03-11T06:53:45.340Z,2017.78
2019-03-11T06:54:45.341Z,2015.67
2019-03-11T06:55:45.322Z,2007.23
2019-03-11T06:56:45.353Z,2010.44
2019-03-11T06:57:45.351Z,2012.70
2019-03-11T06:58:45.358Z,2015.21
2019-03-11T06:59:45.330Z,2008.93
2019-03-11T07:00:45.365Z,2000.98
2019-03-11T07:01:45.366Z,1980.60
2019-03-11T07:02:45.518Z,2030.04
2019-03-11T07:03:45.379Z,2009.18
2019-03-11T07:04:45.349Z,2004.92
2019-03-11T07:05:45.330Z,2027.41
2019-03-11T07:06:45.373Z,2022.20
2019-03-11T07:07:45.364Z,2009.37
2019-03-11T07:08:45.351Z,2031.45
2019-03-11T07:09:45.378Z,2007.05
2019-03-11T07:10:45.381Z,2003.90
2019-03-11T07:11:45.340Z,2021.02
2019-03-11T07:12:45.362Z,2021.77
2019-03-11T07:13:45.405Z,2019.56
2019-03-11T07:14:45.369Z,2018.55
2019-03-11T07:15:45.359Z,2022.02
2019-03-11T07:16:45.365Z,2019.20
2019-03-11T07:17:45.370Z,2024.84
2019-03-11T07:18:45.408Z,2010.99
2019-03-11T07:19:45.368Z,2028.54
2019-03-11T07:20:45.343Z,2037.41
2019-03-11T07:21:45.379Z,2044.54
2019-03-11T07:22:45.343Z,2044.44
2019-03-11T07:23:45.413Z,2033.29
2019-03-11T07:24:45.386Z,2047.49
2019-03-11T07:25:45.379Z,2022.65
2019-03-11T07:26:45.398Z,2041.62
2019-03-11T07:27:45.367Z,2027.14
2019-03-11T07:28:45.392Z,2044.88
2019-03-11T07:29:45.369Z,2041.21
2019-03-11T07:30:45.357Z,2044.57
2019-03-11T07:31:45.384Z,2036.98
2019-03-11T07:32:45.385Z,2041.96
2019-03-11T07:33:45.396Z,2057.16
2019-03-11T07:34:45.455Z,2033.92
2019-03-11T07:35:45.387Z,2027.49
2019-03-11T07:36:45.347Z,2056.90
2019-03-11T07:37:45.359Z,2043.23
2019-03-11T07:38:45.422Z,2061.78
2019-03-11T07:39:45.423Z,2053.15
2019-03-11T07:40:45.392Z,2048.23
2019-03-11T07:41:45.384Z,2033.61
2019-03-11T07:42:45.385Z,2036.30
2019-03-11T07:43:45.401Z,2050.53
2019-03-11T07:44:45.409Z,2035.94
2019-03-11T07:45:45.380Z,2045.72
2019-03-11T07:46:45.720Z,2051.19
2019-03-11T07:47:45.424Z,2059.35
2019-03-11T07:48:45.417Z,2051.19
2019-03-11T07:49:45.411Z,2046.28
2019-03-11T07:50:45.373Z,2033.50
2019-03-11T07:51:45.373Z,2043.83
2019-03-11T07:52:45.403Z,2035.12
2019-03-11T07:53:45.453Z,2072.29
2019-03-11T07:54:45.433Z,2075.09
2019-03-11T07:55:45.426Z,2064.08
2019-03-11T07:56:45.418Z,2050.47
2019-03-11T07:57:45.387Z,2051.13
2019-03-11T07:58:45.436Z,2076.27
2019-03-11T07:59:45.454Z,2038.21
2019-03-11T08:00:53.343Z,2036.43
2019-03-11T08:01:45.382Z,2050.15
2019-03-11T08:02:45.402Z,2056.10
2019-03-11T08:03:45.381Z,2046.32
2019-03-11T08:04:45.399Z,2048.10
2019-03-11T08:05:45.394Z,2050.66
2019-03-11T08:06:45.427Z,2064.18
2019-03-11T08:07:45.421Z,2052.30
2019-03-11T08:08:45.446Z,2050.15
2019-03-11T08:09:45.463Z,2040.91
2019-03-11T08:10:45.430Z,2045.71
2019-03-11T08:11:45.434Z,2070.12
2019-03-11T08:12:45.444Z,2056.56
2019-03-11T08:13:45.392Z,2047.29
2019-03-11T08:14:45.427Z,2048.68
2019-03-11T08:15:45.408Z,2062.48
2019-03-11T08:16:45.414Z,2048.73
2019-03-11T08:17:45.427Z,2054.77
2019-03-11T08:18:45.436Z,2031.42
2019-03-11T08:19:45.436Z,2056.46
2019-03-11T08:20:45.473Z,2064.64
2019-03-11T08:21:45.456Z,2054.11
2019-03-11T08:22:45.474Z,2053.74
2019-03-11T08:23:45.459Z,2039.96
2019-03-11T08:24:45.459Z,2064.54
2019-03-11T08:25:45.474Z,2047.19
2019-03-11T08:26:45.459Z,2050.32
2019-03-11T08:27:45.489Z,2034.66
2019-03-11T08:28:45.458Z,2057.44
2019-03-11T08:29:45.457Z,2031.92
2019-03-11T08:30:45.441Z,2064.45
2019-03-11T08:31:45.469Z,2042.19
2019-03-11T08:32:45.429Z,2042.75
2019-03-11T08:33:45.438Z,2049.71
2019-03-11T08:34:45.462Z,2052.98
2019-03-11T08:35:45.495Z,2041.12
2019-03-11T08:36:45.442Z,2062.08
2019-03-11T08:37:45.469Z,2048.07
2019-03-11T08:38:45.437Z,2055.70
2019-03-11T08:39:45.441Z,2067.75
2019-03-11T08:40:45.486Z,2037.77
2019-03-11T08:41:45.443Z,2039.96
2019-03-11T08:42:45.439Z,2046.43
2019-03-11T08:43:45.449Z,2040.56
2019-03-11T08:44:45.455Z,2054.06
2019-03-11T08:45:45.492Z,2036.14
2019-03-11T08:46:45.483Z,2053.35
2019-03-11T08:47:45.468Z,2051.86
2019-03-11T08:48:45.433Z,2056.63
2019-03-11T08:49:45.487Z,2042.92
2019-03-11T08:50:45.466Z,2057.44
2019-03-11T08:51:45.486Z,2058.42
2019-03-11T08:52:45.490Z,2051.19
2019-03-11T08:53:45.487Z,2058.42
2019-03-11T08:54:45.475Z,2029.70
2019-03-11T08:55:45.493Z,2038.69
2019-03-11T08:56:45.484Z,2052.22
2019-03-11T08:57:45.490Z,2058.27
2019-03-11T08:58:45.469Z,2064.76
2019-03-11T08:59:45.474Z,2060.33
2019-03-11T09:00:45.453Z,2060.48
2019-03-11T09:01:45.510Z,2047.72
2019-03-11T09:02:45.492Z,2048.23
2019-03-11T09:03:47.766Z,2072.73
2019-03-11T09:04:45.486Z,2046.50
2019-03-11T09:05:45.505Z,2055.10
2019-03-11T09:06:45.510Z,2045.52
2019-03-11T09:07:45.514Z,2035.70
2019-03-11T09:08:45.486Z,2060.14
2019-03-11T09:09:45.500Z,2050.75
2019-03-11T09:10:45.505Z,2060.70
2019-03-11T09:11:45.489Z,2059.15
2019-03-11T09:12:45.512Z,2051.31
2019-03-11T09:13:45.501Z,2060.55
2019-03-11T09:14:45.498Z,2042.77
2019-03-11T09:15:45.507Z,2065.08
2019-03-11T09:16:45.492Z,2030.83
2019-03-11T09:17:45.483Z,2043.28
2019-03-11T09:18:45.508Z,2066.16
2019-03-11T09:19:45.507Z,2039.36
2019-03-11T09:20:45.524Z,2047.11
2019-03-11T09:21:45.545Z,2048.13
2019-03-11T09:22:45.623Z,2056.90
2019-03-11T09:23:45.538Z,2048.70
2019-03-11T09:24:45.570Z,2033.61
2019-03-11T09:25:45.579Z,2054.22
2019-03-11T09:26:45.603Z,2047.72
2019-03-11T09:27:45.611Z,2035.70
2019-03-11T09:28:45.617Z,2051.51
2019-03-11T09:29:45.619Z,2044.45
2019-03-11T09:30:45.614Z,2034.63
2019-03-11T09:31:45.642Z,2044.96
2019-03-11T09:32:45.671Z,2067.35
2019-03-11T09:33:45.671Z,2039.05
2019-03-11T09:34:45.646Z,2062.96
2019-03-11T09:35:45.698Z,2051.46
2019-03-11T09:36:45.727Z,2066.26
2019-03-11T09:37:45.701Z,2043.89
2019-03-11T09:38:45.740Z,2043.89
2019-03-11T09:39:45.718Z,2039.56
2019-03-11T09:40:45.733Z,2055.20
2019-03-11T09:41:45.748Z,2057.92
2019-03-11T09:42:45.770Z,2057.41
2019-03-11T09:43:45.760Z,2046.60
2019-03-11T09:44:45.794Z,2052.07
2019-03-11T09:45:45.786Z,2052.73
2019-03-11T09:46:45.805Z,2043.38
2019-03-11T09:47:45.815Z,2027.83
2019-03-11T09:48:45.848Z,2054.22
2019-03-11T09:49:45.820Z,2056.85
2019-03-11T09:50:45.858Z,2055.20
2019-03-11T09:51:45.836Z,2031.07
2019-03-11T09:52:45.872Z,2035.94
2019-03-11T09:53:45.894Z,2033.61
2019-03-11T09:54:45.879Z,2049.36
2019-03-11T09:55:45.949Z,2051.51
2019-03-11T09:56:45.935Z,2031.63
2019-03-11T09:57:45.937Z,2050.58
2019-03-11T09:58:45.930Z,2030.56
2019-03-11T09:59:45.937Z,2048.38
2019-03-11T10:00:45.979Z,2049.97
2019-03-11T10:01:45.990Z,2031.58
2019-03-11T10:02:52.083Z,2037.42
2019-03-11T10:03:45.997Z,2051.51
2019-03-11T10:04:45.989Z,2042.92
2019-03-11T10:05:45.977Z,2048.33
2019-03-11T10:06:45.992Z,2037.57
2019-03-11T10:07:46.136Z,2044.04
2019-03-11T10:08:46.042Z,2053.25
2019-03-11T10:09:45.993Z,2042.41
2019-03-11T10:10:46.003Z,2054.32
2019-03-11T10:11:46.033Z,2035.48
2019-03-11T10:12:46.020Z,2028.99
2019-03-11T10:13:46.054Z,2030.05
2019-03-11T10:14:46.044Z,2030.61
2019-03-11T10:15:46.040Z,2032.64
2019-03-11T10:16:46.033Z,2050.12
2019-03-11T10:17:46.041Z,2044.65
2019-03-11T10:18:46.039Z,2025.25
2019-03-11T10:19:45.978Z,2043.48
2019-03-11T10:20:46.014Z,2040.88
2019-03-11T10:21:46.034Z,2042.92
2019-03-11T10:22:46.039Z,2022.98
2019-03-11T10:23:46.040Z,2022.52
2019-03-11T10:24:46.016Z,2022.98
2019-03-11T10:25:46.019Z,2024.59
2019-03-11T10:26:46.009Z,2042.41
2019-03-11T10:27:46.017Z,2027.32
2019-03-11T10:28:46.030Z,2017.63
2019-03-11T10:29:46.024Z,2043.99
2019-03-11T10:30:46.025Z,2025.75
2019-03-11T10:31:46.023Z,2039.25
2019-03-11T10:32:46.049Z,2025.25
2019-03-11T10:33:46.079Z,2038.69
2019-03-11T10:34:46.082Z,2046.99
2019-03-11T10:35:46.027Z,2024.84
2019-03-11T10:36:46.068Z,2026.55
2019-03-11T10:37:46.038Z,2034.51
2019-03-11T10:38:46.032Z,2029.24
2019-03-11T10:39:48.002Z,2029.79
2019-03-11T10:40:46.088Z,2040.81
2019-03-11T10:41:46.083Z,2046.63
2019-03-11T10:42:46.082Z,2048.78
2019-03-11T10:43:46.047Z,2028.37
2019-03-11T10:44:46.048Z,2034.30
2019-03-11T10:45:46.032Z,2027.86
2019-03-11T10:46:46.048Z,2024.22
2019-03-11T10:47:46.021Z,2042.54
2019-03-11T10:48:46.089Z,2036.02
2019-03-11T10:49:46.043Z,2047.44
2019-03-11T10:50:46.139Z,2041.57
2019-03-11T10:51:46.076Z,2042.64
2019-03-11T10:52:46.068Z,2026.99
2019-03-11T10:53:46.055Z,2040.45
2019-03-11T10:54:46.041Z,2031.25
2019-03-11T10:55:46.073Z,2040.03
2019-03-11T10:56:46.088Z,2028.15
2019-03-11T10:57:46.116Z,2047.07
2019-03-11T10:58:46.049Z,2044.22
2019-03-11T10:59:46.072Z,2031.49
2019-03-11T11:00:46.004Z,2046.25
2019-03-11T11:01:46.129Z,2027.04
2019-03-11T11:02:46.078Z,2033.12
2019-03-11T11:03:46.073Z,2035.40
2019-03-11T11:04:47.938Z,2024.10
2019-03-11T11:05:46.077Z,2017.50
2019-03-11T11:06:46.063Z,2032.56
2019-03-11T11:07:46.106Z,2035.96
2019-03-11T11:08:46.069Z,2045.13
2019-03-11T11:09:46.131Z,2044.05
2019-03-11T11:10:46.093Z,2039.16
2019-03-11T11:11:46.077Z,2028.40
2019-03-11T11:12:46.078Z,2030.53
2019-03-11T11:13:46.120Z,2036.56
2019-03-11T11:14:46.059Z,2025.72
2019-03-11T11:15:46.069Z,2030.99
2019-03-11T11:16:46.575Z,2024.61
2019-03-11T11:17:46.140Z,2030.53
2019-03-11T11:18:46.161Z,2034.28
2019-03-11T11:19:46.071Z,2044.56
2019-03-11T11:20:46.069Z,2025.21
2019-03-11T11:21:46.088Z,2036.97
2019-03-11T11:22:46.106Z,2037.03
2019-03-11T11:23:46.108Z,2044.15
2019-03-11T11:24:46.104Z,2025.57
2019-03-11T11:25:46.126Z,2039.16
2019-03-11T11:26:46.134Z,2032.71
2019-03-11T11:27:46.143Z,2033.12
2019-03-11T11:28:46.116Z,2024.61
2019-03-11T11:29:46.092Z,2044.56
2019-03-11T11:30:46.099Z,2015.39
2019-03-11T11:31:46.147Z,2029.32
2019-03-11T11:32:46.145Z,2043.34
2019-03-11T11:33:46.172Z,2030.53
2019-03-11T11:34:46.121Z,2017.50
2019-03-11T11:35:46.147Z,2025.57
2019-03-11T11:36:46.103Z,2020.72
2019-03-11T11:37:46.109Z,2017.50
2019-03-11T11:38:46.116Z,2019.36
2019-03-11T11:39:46.120Z,2023.84
2019-03-11T11:40:46.167Z,2032.69
2019-03-11T11:41:46.167Z,2026.35
2019-03-11T11:42:46.121Z,2043.72
2019-03-11T11:43:46.187Z,2040.97
2019-03-11T11:44:46.161Z,2023.72
2019-03-11T11:45:46.118Z,2032.47
2019-03-11T11:46:46.129Z,2036.79
2019-03-11T11:47:46.120Z,2035.97
2019-03-11T11:48:46.167Z,2026.09
2019-03-11T11:49:46.116Z,2041.21
2019-03-11T11:50:46.161Z,2032.67
2019-03-11T11:51:46.121Z,2051.43
2019-03-11T11:52:46.149Z,2027.66
2019-03-11T11:53:46.181Z,2029.23
2019-03-11T11:54:46.151Z,2035.97
2019-03-11T11:55:56.827Z,2031.92
2019-03-11T11:56:46.160Z,2019.12
2019-03-11T11:57:46.197Z,2020.43
2019-03-11T11:58:46.180Z,2039.27
2019-03-11T11:59:53.998Z,2027.15
2019-03-11T12:00:46.174Z,2024.16
2019-03-11T12:01:46.173Z,2020.28
2019-03-11T12:02:46.203Z,2018.16
2019-03-11T12:03:46.229Z,2038.05
2019-03-11T12:04:46.145Z,2044.07
2019-03-11T12:05:46.136Z,2033.33